Langenburg, Canada
Current Conditions -  °F | °C
As of 2:00 AM on Wednesday 22 Oct 2014 (Local Time) from CYQV Reporting Station
Clear Clear  
Wind Chill: 41°   Ceiling: Unl
Heat Index: 41°   Visibility: 9mi
Dew Point: 39°   Wind: 2mph
Humidity: 93%   Direction: 120°ESE
Pressure: 29.55"   Gusts: NA
Location:  50.83°N, 101.7°W
Report Text: CYQV 220800Z AUTO 12002KT 9SM CLR 05/04 A2955 RMK SLP016
Loading
Personal Weather Stations






























Interactive Weather Map
Tropical Storm Tracking
New forecast layout! Learn more

10-Day Weather Forecast

Advertisements
Track Severe Weather on mobile